Time;durP1;ratioP1;P1;durP2;ratioP2;P2;SDS_P1;SDS_P2;PMS_P1;PMS_P2;Temp;Humidity;BMP_temperature;BMP_pressure;BME280_temperature;BME280_humidity;BME280_pressure;Samples;Min_cycle;Max_cycle;Signal;HPM_P1;HPM_P2
2023/08/10 00:01:09;;;;;;;1.85;0.60;;;15.90;99.90;;;;;;5068241;28;20139;-33
2023/08/10 00:03:35;;;;;;;4.45;0.50;;;15.80;99.90;;;;;;5056914;28;20143;-33
2023/08/10 00:06:00;;;;;;;3.03;0.82;;;15.90;99.90;;;;;;5058730;28;20045;-33
2023/08/10 00:08:26;;;;;;;3.63;0.68;;;15.90;99.90;;;;;;5063948;28;20439;-33
2023/08/10 00:10:52;;;;;;;4.43;0.57;;;16.00;99.90;;;;;;5060180;28;20686;-33
2023/08/10 00:13:17;;;;;;;4.78;0.75;;;16.00;99.90;;;;;;5056074;28;20548;-33
2023/08/10 00:15:43;;;;;;;3.58;0.88;;;16.10;99.90;;;;;;5059291;28;20076;-33
2023/08/10 00:18:09;;;;;;;4.68;0.60;;;16.10;99.90;;;;;;5060109;28;20053;-33
2023/08/10 00:20:35;;;;;;;4.07;0.60;;;16.10;99.90;;;;;;5060318;28;20056;-33
2023/08/10 00:23:01;;;;;;;3.17;0.70;;;16.10;99.90;;;;;;5067489;28;20078;-33
2023/08/10 00:25:27;;;;;;;2.70;0.50;;;16.10;99.90;;;;;;5044582;28;20060;-33
2023/08/10 00:27:55;;;;;;;3.38;0.50;;;16.10;99.90;;;;;;5063908;28;20502;-34
2023/08/10 00:30:21;;;;;;;2.15;0.60;;;16.10;99.90;;;;;;5065891;28;20510;-33
2023/08/10 00:32:47;;;;;;;2.03;0.80;;;16.20;99.90;;;;;;5063930;28;20086;-33
2023/08/10 00:35:13;;;;;;;2.72;0.70;;;16.20;99.90;;;;;;5065785;28;20505;-33
2023/08/10 00:37:39;;;;;;;3.38;0.73;;;16.20;99.90;;;;;;5067394;28;20060;-33
2023/08/10 00:40:09;;;;;;;1.70;0.57;;;16.10;99.90;;;;;;5068049;28;20105;-33
2023/08/10 00:42:34;;;;;;;3.30;1.02;;;16.10;99.90;;;;;;5070460;28;20053;-33
2023/08/10 00:45:00;;;;;;;2.92;0.65;;;16.10;99.90;;;;;;5071352;28;20060;-33
2023/08/10 00:47:26;;;;;;;2.60;0.70;;;16.10;99.90;;;;;;5065767;28;20083;-33
2023/08/10 00:49:53;;;;;;;4.78;0.70;;;16.10;99.90;;;;;;5062295;28;20472;-33
2023/08/10 00:52:18;;;;;;;12.00;1.13;;;16.00;99.90;;;;;;5049469;28;20045;-34
2023/08/10 00:54:44;;;;;;;2.92;0.63;;;16.00;99.90;;;;;;5060571;28;20059;-33
2023/08/10 00:57:10;;;;;;;2.58;0.50;;;15.90;99.90;;;;;;5068600;28;20075;-33
2023/08/10 00:59:38;;;;;;;1.83;0.55;;;15.90;99.90;;;;;;5068378;28;20117;-33
2023/08/10 01:02:04;;;;;;;4.32;1.05;;;15.90;99.90;;;;;;5060962;28;20040;-33
2023/08/10 01:04:29;;;;;;;2.05;0.63;;;15.80;99.90;;;;;;5060081;28;20072;-33
2023/08/10 01:06:58;;;;;;;1.73;0.60;;;15.80;99.90;;;;;;5058754;28;20143;-33
2023/08/10 01:09:33;;;;;;;1.88;0.50;;;15.80;99.90;;;;;;5067526;28;20041;-33
2023/08/10 01:11:59;;;;;;;2.03;0.60;;;15.70;99.90;;;;;;5055766;28;20514;-33
2023/08/10 01:14:38;;;;;;;2.97;0.85;;;15.80;99.90;;;;;;5069069;28;20044;-34
2023/08/10 01:17:10;;;;;;;4.32;0.80;;;15.70;99.90;;;;;;5051542;28;20103;-33
2023/08/10 01:19:38;;;;;;;3.17;0.90;;;15.70;99.90;;;;;;5042208;28;20608;-33
2023/08/10 01:22:28;;;;;;;2.03;0.70;;;15.70;99.90;;;;;;5047868;28;20044;-33
2023/08/10 01:24:57;;;;;;;2.95;0.98;;;15.60;99.90;;;;;;5057142;28;20124;-33
2023/08/10 01:27:24;;;;;;;2.35;0.93;;;15.60;99.90;;;;;;5066061;28;20053;-33
2023/08/10 01:29:49;;;;;;;2.65;0.80;;;15.50;99.90;;;;;;5058037;28;20063;-33
2023/08/10 01:32:15;;;;;;;4.93;0.90;;;15.50;99.90;;;;;;5052346;28;20044;-33
2023/08/10 01:34:41;;;;;;;2.42;0.85;;;15.40;99.90;;;;;;5061997;28;20040;-33
2023/08/10 01:37:07;;;;;;;2.30;0.70;;;15.40;99.90;;;;;;5063787;28;20055;-33
2023/08/10 01:39:33;;;;;;;3.63;0.90;;;15.40;99.90;;;;;;5067344;28;20085;-33
2023/08/10 01:41:59;;;;;;;2.45;0.80;;;15.30;99.90;;;;;;5068525;28;20057;-33
2023/08/10 01:44:24;;;;;;;3.65;0.80;;;15.20;99.90;;;;;;5048759;28;20098;-33
2023/08/10 01:46:54;;;;;;;5.75;0.80;;;15.20;99.90;;;;;;5065512;28;20105;-33
2023/08/10 01:49:23;;;;;;;4.35;0.80;;;15.20;99.90;;;;;;5055893;28;20052;-33
2023/08/10 01:51:49;;;;;;;3.85;1.00;;;15.20;99.90;;;;;;5064025;28;20379;-33
2023/08/10 01:54:16;;;;;;;3.60;0.70;;;15.10;99.90;;;;;;5068413;28;20063;-33
2023/08/10 01:56:43;;;;;;;2.35;0.80;;;15.10;99.90;;;;;;5053225;28;20044;-33
2023/08/10 01:59:09;;;;;;;1.65;0.60;;;15.10;99.90;;;;;;5064871;28;20056;-34
2023/08/10 02:01:35;;;;;;;2.13;0.93;;;15.10;99.90;;;;;;5053088;28;20048;-33
2023/08/10 02:04:00;;;;;;;4.55;0.90;;;15.10;99.90;;;;;;5063227;28;20441;-33
2023/08/10 02:06:26;;;;;;;5.55;0.80;;;15.20;99.90;;;;;;5063272;28;20048;-33
2023/08/10 02:08:52;;;;;;;3.05;0.68;;;15.20;99.90;;;;;;5054294;28;20056;-33
2023/08/10 02:11:17;;;;;;;4.10;1.08;;;15.10;99.90;;;;;;5068112;28;20052;-33
2023/08/10 02:13:43;;;;;;;3.50;0.93;;;15.00;99.90;;;;;;5055230;28;20056;-33
2023/08/10 02:16:09;;;;;;;2.40;0.80;;;15.00;99.90;;;;;;5053357;28;20041;-33
2023/08/10 02:18:34;;;;;;;2.60;0.70;;;14.90;99.90;;;;;;5047816;28;20114;-34
2023/08/10 02:21:00;;;;;;;2.38;0.80;;;14.80;99.90;;;;;;5059705;28;20060;-33
2023/08/10 02:23:29;;;;;;;3.65;0.77;;;14.80;99.90;;;;;;5058048;28;20044;-33
2023/08/10 02:25:54;;;;;;;3.90;0.80;;;14.80;99.90;;;;;;5048837;28;20569;-33
2023/08/10 02:28:20;;;;;;;2.80;0.70;;;14.80;99.90;;;;;;5060562;28;20579;-34
2023/08/10 02:30:46;;;;;;;7.78;0.93;;;14.70;99.90;;;;;;5059384;28;20421;-33
2023/08/10 02:33:12;;;;;;;1.90;0.50;;;14.70;99.90;;;;;;5058149;28;20052;-33
2023/08/10 02:35:37;;;;;;;2.75;0.77;;;14.80;99.90;;;;;;5058286;28;20547;-33
2023/08/10 02:38:03;;;;;;;3.60;0.88;;;14.80;99.90;;;;;;5060891;28;20075;-33
2023/08/10 02:40:29;;;;;;;3.70;0.93;;;14.80;99.90;;;;;;5041983;28;20406;-33
2023/08/10 02:42:54;;;;;;;2.25;0.77;;;14.80;99.90;;;;;;5045670;28;20487;-34
2023/08/10 02:45:20;;;;;;;6.30;1.38;;;14.80;99.90;;;;;;5047752;28;20053;-33
2023/08/10 02:47:46;;;;;;;5.40;1.00;;;14.80;99.90;;;;;;5062022;28;20540;-33
2023/08/10 02:50:11;;;;;;;5.18;1.35;;;14.80;99.90;;;;;;5066126;28;20454;-34
2023/08/10 02:52:37;;;;;;;2.17;0.98;;;14.80;99.90;;;;;;5066268;28;20060;-33
2023/08/10 02:55:03;;;;;;;5.57;0.90;;;14.80;99.90;;;;;;5062194;28;20055;-33
2023/08/10 02:57:30;;;;;;;2.78;0.93;;;14.80;99.90;;;;;;5064750;28;20040;-33
2023/08/10 02:59:55;;;;;;;3.10;1.10;;;14.80;99.90;;;;;;5064552;28;20041;-33
2023/08/10 03:02:21;;;;;;;4.40;1.10;;;14.80;99.90;;;;;;5056975;28;20082;-33
2023/08/10 03:04:47;;;;;;;3.80;1.00;;;14.80;99.90;;;;;;5061282;28;20044;-34
2023/08/10 03:07:13;;;;;;;2.03;0.93;;;14.90;99.90;;;;;;5063868;28;20048;-34
2023/08/10 03:09:41;;;;;;;6.75;1.20;;;14.90;99.90;;;;;;5066390;28;20386;-33
2023/08/10 03:12:07;;;;;;;3.70;1.67;;;14.90;99.90;;;;;;5063945;28;20056;-33
2023/08/10 03:14:33;;;;;;;6.55;1.50;;;14.90;99.90;;;;;;5066195;28;20499;-33
2023/08/10 03:16:59;;;;;;;3.67;1.60;;;14.90;99.90;;;;;;5063556;28;20061;-33
2023/08/10 03:19:24;;;;;;;5.05;1.70;;;14.90;99.90;;;;;;5060473;28;20455;-33
2023/08/10 03:21:50;;;;;;;7.40;2.28;;;15.00;99.90;;;;;;5063195;28;20056;-33
2023/08/10 03:24:16;;;;;;;5.95;1.50;;;15.00;99.90;;;;;;5058274;28;20071;-34
2023/08/10 03:26:42;;;;;;;5.82;1.58;;;15.00;99.90;;;;;;5058310;28;20056;-33
2023/08/10 03:29:07;;;;;;;4.63;1.50;;;15.00;99.90;;;;;;5055199;28;20068;-34
2023/08/10 03:31:33;;;;;;;3.28;1.48;;;15.00;99.90;;;;;;5064739;28;20048;-34
2023/08/10 03:33:59;;;;;;;4.65;1.45;;;15.00;99.90;;;;;;5062626;28;20093;-33
2023/08/10 03:36:25;;;;;;;7.90;2.20;;;15.00;99.90;;;;;;5064790;28;20098;-34
2023/08/10 03:38:51;;;;;;;5.95;1.55;;;15.00;99.90;;;;;;5061642;28;20056;-33
2023/08/10 03:41:16;;;;;;;3.47;1.60;;;15.00;99.90;;;;;;5062464;28;20486;-33
2023/08/10 03:43:42;;;;;;;4.57;1.60;;;15.00;99.90;;;;;;5055772;28;20072;-34
2023/08/10 03:46:07;;;;;;;3.78;1.48;;;15.00;99.90;;;;;;5066203;28;20143;-33
2023/08/10 03:48:33;;;;;;;4.30;1.85;;;14.90;99.90;;;;;;5057101;28;20076;-33
2023/08/10 03:50:59;;;;;;;5.45;1.98;;;14.90;99.90;;;;;;5058535;28;20056;-33
2023/08/10 03:53:25;;;;;;;7.45;2.30;;;14.90;99.90;;;;;;5052276;28;20041;-33
2023/08/10 03:55:51;;;;;;;5.05;1.98;;;14.80;99.90;;;;;;5062917;28;20056;-33
2023/08/10 03:58:17;;;;;;;4.13;2.05;;;14.80;99.90;;;;;;5070698;28;20406;-33
2023/08/10 04:00:45;;;;;;;3.47;1.40;;;14.80;99.90;;;;;;5060477;28;20768;-33
2023/08/10 04:03:15;;;;;;;3.85;1.40;;;14.80;99.90;;;;;;5066666;28;20045;-33
2023/08/10 04:05:41;;;;;;;6.38;1.70;;;14.80;99.90;;;;;;5065513;28;20409;-33
2023/08/10 04:08:10;;;;;;;4.97;1.60;;;14.70;99.90;;;;;;5063718;28;20049;-33
2023/08/10 04:10:36;;;;;;;4.97;1.73;;;14.70;99.90;;;;;;5068789;28;20169;-33
2023/08/10 04:13:02;;;;;;;4.10;1.50;;;14.70;99.90;;;;;;5061242;28;20062;-33
2023/08/10 04:15:30;;;;;;;5.25;1.80;;;14.80;99.90;;;;;;5061254;28;20060;-33
2023/08/10 04:17:56;;;;;;;3.88;1.50;;;14.80;99.90;;;;;;5043363;28;20802;-34
2023/08/10 04:20:22;;;;;;;4.68;2.03;;;14.70;99.90;;;;;;5061649;28;20048;-33
2023/08/10 04:22:48;;;;;;;6.03;1.60;;;14.80;99.90;;;;;;5060970;28;20060;-34
2023/08/10 04:25:13;;;;;;;6.43;2.10;;;14.70;99.90;;;;;;5077266;28;20045;-33
2023/08/10 04:27:40;;;;;;;5.50;1.75;;;14.70;99.90;;;;;;5059674;28;20135;-33
2023/08/10 04:30:08;;;;;;;5.35;1.63;;;14.70;99.90;;;;;;5052773;28;20048;-33
2023/08/10 04:32:35;;;;;;;4.00;1.67;;;14.70;99.90;;;;;;5060787;28;20056;-33
2023/08/10 04:35:02;;;;;;;3.75;1.83;;;14.70;99.90;;;;;;5058852;28;20060;-34
2023/08/10 04:37:28;;;;;;;7.72;1.48;;;14.80;99.90;;;;;;5052829;28;20473;-33
2023/08/10 04:39:54;;;;;;;3.28;1.50;;;14.80;99.90;;;;;;5062640;28;20045;-33
2023/08/10 04:42:19;;;;;;;4.00;1.30;;;14.80;99.90;;;;;;5062102;28;20410;-34
2023/08/10 04:44:45;;;;;;;4.22;1.38;;;14.80;99.90;;;;;;5066909;28;20044;-34
2023/08/10 04:47:11;;;;;;;5.35;2.05;;;14.80;99.90;;;;;;5058223;28;20051;-33
2023/08/10 04:49:36;;;;;;;4.85;1.63;;;14.90;99.90;;;;;;5062357;28;20487;-33
2023/08/10 04:52:03;;;;;;;5.25;1.70;;;14.90;99.90;;;;;;5059090;28;20059;-33
2023/08/10 04:54:28;;;;;;;4.85;1.70;;;14.90;99.90;;;;;;5067632;28;20057;-33
2023/08/10 04:56:54;;;;;;;5.50;2.13;;;14.90;99.90;;;;;;5063622;28;21083;-33
2023/08/10 04:59:20;;;;;;;5.00;1.67;;;14.90;99.90;;;;;;5063886;28;20136;-33
2023/08/10 05:01:45;;;;;;;4.25;1.70;;;15.00;99.90;;;;;;5066670;28;20044;-33
2023/08/10 05:04:14;;;;;;;3.50;1.70;;;15.00;99.90;;;;;;5062212;28;20758;-33
2023/08/10 05:06:40;;;;;;;4.65;1.63;;;15.00;99.90;;;;;;5069720;28;20068;-33
2023/08/10 05:09:06;;;;;;;4.45;1.75;;;15.00;99.90;;;;;;5044517;28;20095;-33
2023/08/10 05:11:31;;;;;;;5.07;1.52;;;15.10;99.90;;;;;;5061426;28;20124;-33
2023/08/10 05:13:57;;;;;;;3.08;1.30;;;15.00;99.90;;;;;;5057593;28;20131;-33
2023/08/10 05:16:23;;;;;;;3.17;1.25;;;15.10;99.90;;;;;;5050699;28;20464;-33
2023/08/10 05:18:50;;;;;;;4.38;1.42;;;15.10;99.90;;;;;;5065319;28;20059;-33
2023/08/10 05:21:17;;;;;;;6.03;1.67;;;15.10;99.90;;;;;;5061485;28;20493;-34
2023/08/10 05:23:43;;;;;;;3.00;1.40;;;15.10;99.90;;;;;;5056881;28;20056;-34
2023/08/10 05:26:08;;;;;;;6.55;1.95;;;15.10;99.90;;;;;;5056342;28;20138;-34
2023/08/10 05:28:34;;;;;;;5.70;1.50;;;15.10;99.90;;;;;;5067859;28;20060;-34
2023/08/10 05:31:00;;;;;;;3.05;1.52;;;15.10;99.90;;;;;;5042505;28;20057;-33
2023/08/10 05:33:26;;;;;;;4.93;1.63;;;15.10;99.90;;;;;;5057212;28;20135;-34
2023/08/10 05:35:52;;;;;;;4.32;1.80;;;15.10;99.90;;;;;;5056668;28;20088;-34
2023/08/10 05:38:17;;;;;;;3.70;1.52;;;15.20;99.90;;;;;;5059003;28;20040;-34
2023/08/10 05:40:43;;;;;;;7.25;1.98;;;15.30;99.90;;;;;;5064089;28;20044;-33
2023/08/10 05:43:09;;;;;;;4.00;1.20;;;15.30;99.90;;;;;;5065504;28;20045;-33
2023/08/10 05:45:35;;;;;;;2.63;1.33;;;15.30;99.90;;;;;;5069193;28;20168;-34
2023/08/10 05:48:00;;;;;;;3.92;1.60;;;15.40;99.90;;;;;;5067512;28;20045;-33
2023/08/10 05:50:27;;;;;;;5.65;1.52;;;15.40;99.90;;;;;;5055119;28;20048;-33
2023/08/10 05:52:53;;;;;;;6.47;1.58;;;15.40;99.90;;;;;;5062816;28;20605;-33
2023/08/10 05:55:18;;;;;;;4.97;1.58;;;15.50;99.90;;;;;;5064500;28;20464;-34
2023/08/10 05:57:45;;;;;;;2.38;1.00;;;15.50;99.90;;;;;;5066983;28;20143;-33
2023/08/10 06:00:13;;;;;;;5.75;1.45;;;15.60;99.90;;;;;;5057359;28;20131;-33
2023/08/10 06:02:39;;;;;;;2.85;1.35;;;15.70;99.90;;;;;;5065711;28;20045;-34
2023/08/10 06:05:06;;;;;;;6.97;1.40;;;15.70;99.90;;;;;;5077791;28;20040;-33
2023/08/10 06:07:33;;;;;;;3.95;1.67;;;15.70;99.90;;;;;;5061578;28;20045;-33
2023/08/10 06:09:59;;;;;;;5.57;1.67;;;15.70;99.90;;;;;;5051382;28;20052;-33
2023/08/10 06:12:24;;;;;;;3.88;1.60;;;15.80;99.90;;;;;;5047855;28;20122;-34
2023/08/10 06:14:50;;;;;;;4.07;1.27;;;15.80;99.90;;;;;;5052967;28;20408;-33
2023/08/10 06:17:16;;;;;;;5.15;1.50;;;15.80;99.90;;;;;;5057146;28;20183;-34
2023/08/10 06:19:51;;;;;;;2.85;1.55;;;15.90;99.90;;;;;;5050845;28;20052;-34
2023/08/10 06:22:19;;;;;;;4.90;1.40;;;15.90;99.90;;;;;;5043606;28;20048;-33
2023/08/10 06:24:45;;;;;;;1.85;1.00;;;16.00;99.90;;;;;;5058852;28;20619;-33
2023/08/10 06:27:11;;;;;;;2.75;1.10;;;16.00;99.90;;;;;;5058443;28;20052;-34
2023/08/10 06:29:37;;;;;;;4.05;1.13;;;16.00;99.90;;;;;;5058621;28;20406;-33
2023/08/10 06:32:06;;;;;;;3.55;1.58;;;16.00;99.90;;;;;;5058384;28;20056;-34
2023/08/10 06:34:32;;;;;;;3.20;1.30;;;16.00;99.90;;;;;;5057315;28;20090;-34
2023/08/10 06:36:59;;;;;;;6.22;1.75;;;16.00;99.90;;;;;;5058217;28;20048;-34
2023/08/10 06:39:27;;;;;;;2.78;1.10;;;16.00;99.90;;;;;;5040990;28;20081;-33
2023/08/10 06:41:53;;;;;;;3.80;1.33;;;16.10;99.90;;;;;;5059640;28;20448;-34
2023/08/10 06:44:22;;;;;;;5.15;1.10;;;16.10;99.90;;;;;;5057894;28;20059;-33
2023/08/10 06:46:48;;;;;;;3.65;1.58;;;16.20;99.90;;;;;;5062445;28;20040;-34
2023/08/10 06:49:16;;;;;;;3.45;1.13;;;16.20;99.90;;;;;;5058456;28;20650;-33
2023/08/10 06:51:42;;;;;;;6.28;1.42;;;16.20;99.90;;;;;;5062927;28;20059;-33
2023/08/10 06:54:08;;;;;;;3.42;1.20;;;16.30;99.90;;;;;;5060552;28;20052;-33
2023/08/10 06:56:33;;;;;;;5.60;1.45;;;16.30;99.90;;;;;;5060504;28;20056;-33
2023/08/10 06:58:59;;;;;;;2.47;1.10;;;16.40;99.90;;;;;;5064945;28;20147;-33
2023/08/10 07:01:25;;;;;;;5.00;1.23;;;16.40;99.90;;;;;;5060495;28;20076;-33
2023/08/10 07:03:50;;;;;;;5.30;1.50;;;16.50;99.90;;;;;;5045218;28;20041;-34
2023/08/10 07:06:17;;;;;;;4.25;1.17;;;16.50;99.90;;;;;;5044526;28;20052;-33
2023/08/10 07:08:43;;;;;;;4.63;1.40;;;16.60;99.90;;;;;;5062607;28;20486;-34
2023/08/10 07:11:08;;;;;;;4.40;1.17;;;16.60;99.90;;;;;;5061163;28;20051;-33
2023/08/10 07:13:34;;;;;;;7.28;2.03;;;16.70;99.90;;;;;;5063226;28;20068;-34
2023/08/10 07:16:00;;;;;;;2.38;1.02;;;16.80;99.90;;;;;;5065008;28;20464;-34
2023/08/10 07:18:26;;;;;;;2.83;1.10;;;16.90;99.90;;;;;;5068176;28;20048;-34
2023/08/10 07:20:53;;;;;;;4.05;1.05;;;16.90;99.90;;;;;;5045081;28;20060;-34
2023/08/10 07:23:20;;;;;;;1.80;0.85;;;17.10;99.90;;;;;;5062062;28;20037;-34
2023/08/10 07:25:45;;;;;;;6.32;1.08;;;17.10;99.90;;;;;;5067488;28;20047;-34
2023/08/10 07:28:11;;;;;;;3.70;1.23;;;17.20;99.90;;;;;;5065178;28;20480;-34
2023/08/10 07:30:37;;;;;;;5.93;1.30;;;17.30;99.90;;;;;;5062078;28;20061;-34
2023/08/10 07:33:03;;;;;;;4.30;1.10;;;17.30;99.90;;;;;;5056490;28;20052;-34
2023/08/10 07:35:29;;;;;;;2.63;0.90;;;17.40;99.90;;;;;;5060234;28;20087;-34
2023/08/10 07:37:55;;;;;;;3.40;0.75;;;17.40;99.90;;;;;;5063558;28;20442;-34
2023/08/10 07:40:21;;;;;;;3.67;0.80;;;17.40;99.90;;;;;;5060772;28;20076;-34
2023/08/10 07:42:46;;;;;;;2.47;0.77;;;17.40;99.90;;;;;;5057061;28;20045;-34
2023/08/10 07:45:12;;;;;;;5.32;0.70;;;17.40;99.90;;;;;;5066500;28;20037;-33
2023/08/10 07:47:38;;;;;;;4.28;0.80;;;17.50;99.90;;;;;;5060395;28;20048;-34
2023/08/10 07:50:05;;;;;;;2.17;0.60;;;17.50;99.90;;;;;;5062695;28;20087;-33
2023/08/10 07:52:31;;;;;;;2.30;0.60;;;17.50;99.90;;;;;;5059398;28;20510;-34
2023/08/10 07:54:57;;;;;;;5.07;0.95;;;17.60;99.90;;;;;;5048146;28;20083;-33
2023/08/10 07:57:23;;;;;;;4.32;1.00;;;17.70;99.90;;;;;;5061246;28;20056;-34
2023/08/10 07:59:48;;;;;;;2.85;0.60;;;17.90;99.90;;;;;;5061051;28;20087;-33
2023/08/10 08:02:14;;;;;;;2.40;0.65;;;18.00;99.90;;;;;;5056429;28;20155;-34
2023/08/10 08:04:40;;;;;;;5.03;0.98;;;18.10;99.90;;;;;;5056651;28;20048;-34
2023/08/10 08:07:06;;;;;;;4.15;0.73;;;18.20;99.90;;;;;;5060015;28;20059;-34
2023/08/10 08:09:31;;;;;;;3.20;0.80;;;18.20;99.90;;;;;;5063432;28;20044;-34
2023/08/10 08:11:57;;;;;;;3.95;0.40;;;18.20;99.90;;;;;;5057410;28;20052;-34
2023/08/10 08:14:23;;;;;;;3.90;0.40;;;18.20;99.90;;;;;;5053677;28;20052;-34
2023/08/10 08:16:48;;;;;;;2.08;0.40;;;18.20;99.90;;;;;;5063875;28;20373;-34
2023/08/10 08:19:14;;;;;;;2.20;0.50;;;18.20;99.90;;;;;;5059390;28;20045;-34
2023/08/10 08:21:40;;;;;;;2.30;0.40;;;18.30;99.90;;;;;;5077206;28;20067;-34
2023/08/10 08:24:06;;;;;;;4.88;0.60;;;18.40;99.90;;;;;;5056884;28;20053;-33
2023/08/10 08:26:33;;;;;;;1.95;0.50;;;18.40;99.90;;;;;;5053308;28;20141;-34
2023/08/10 08:28:59;;;;;;;1.88;0.40;;;18.50;99.90;;;;;;5066568;28;20084;-34
2023/08/10 08:31:28;;;;;;;2.40;0.60;;;18.60;99.90;;;;;;5056154;28;20525;-34
2023/08/10 08:33:54;;;;;;;2.97;0.50;;;18.70;99.90;;;;;;5068782;28;20143;-34
2023/08/10 08:36:20;;;;;;;1.67;0.80;;;18.90;99.90;;;;;;5069688;28;20132;-34
2023/08/10 08:38:45;;;;;;;1.20;0.50;;;19.10;99.90;;;;;;5068580;28;20105;-34
2023/08/10 08:41:11;;;;;;;2.53;0.52;;;19.10;99.90;;;;;;5049897;28;20076;-34
2023/08/10 08:43:38;;;;;;;2.90;0.63;;;19.10;99.90;;;;;;5050542;28;20053;-34
2023/08/10 08:46:05;;;;;;;3.25;0.90;;;19.20;99.90;;;;;;5067402;28;20048;-34
2023/08/10 08:48:31;;;;;;;2.63;0.70;;;19.20;99.90;;;;;;5058464;28;20418;-34
2023/08/10 08:50:57;;;;;;;2.50;0.82;;;19.20;99.90;;;;;;5068248;28;20127;-34
2023/08/10 08:53:24;;;;;;;5.75;0.70;;;19.20;99.90;;;;;;5058140;28;20057;-34
2023/08/10 08:55:50;;;;;;;2.78;0.60;;;19.30;99.90;;;;;;5060142;28;20516;-34
2023/08/10 08:58:17;;;;;;;2.63;0.75;;;19.40;99.90;;;;;;5069641;28;20049;-34
2023/08/10 09:00:53;;;;;;;2.03;0.57;;;19.40;99.90;;;;;;5045926;28;20045;-34
2023/08/10 09:03:24;;;;;;;4.80;0.75;;;19.50;99.90;;;;;;5051478;28;20068;-34
2023/08/10 09:05:49;;;;;;;4.80;0.95;;;19.50;99.90;;;;;;5054990;28;20152;-34
2023/08/10 09:08:17;;;;;;;5.00;0.50;;;19.50;99.90;;;;;;5065057;28;20131;-34
2023/08/10 09:10:45;;;;;;;3.17;0.70;;;19.50;99.90;;;;;;5067244;28;20057;-34
2023/08/10 09:13:22;;;;;;;2.05;0.60;;;19.40;99.90;;;;;;5061470;28;20064;-34
2023/08/10 09:16:07;;;;;;;2.72;0.80;;;19.40;99.90;;;;;;5067021;28;20769;-34
2023/08/10 09:18:34;;;;;;;4.68;0.88;;;19.40;99.90;;;;;;5053256;28;20048;-33
2023/08/10 09:21:13;;;;;;;1.25;0.50;;;19.40;99.90;;;;;;5057420;28;20099;-34
2023/08/10 09:23:40;;;;;;;4.07;0.65;;;19.50;99.90;;;;;;5061993;28;20044;-34
2023/08/10 09:26:10;;;;;;;1.98;0.57;;;19.60;99.90;;;;;;5052667;28;20544;-34
2023/08/10 09:28:37;;;;;;;1.45;0.50;;;19.70;99.90;;;;;;5064635;28;20057;-34
2023/08/10 09:31:09;;;;;;;3.42;0.73;;;19.80;99.90;;;;;;5056575;28;20699;-33
2023/08/10 09:33:36;;;;;;;;;;;19.80;99.90;;;;;;5052461;28;20123;-34
2023/08/10 09:36:03;;;;;;;2.72;0.70;;;19.90;99.90;;;;;;5064639;28;19935;-34
2023/08/10 09:38:29;;;;;;;2.33;0.60;;;19.90;99.90;;;;;;5043616;28;20049;-33
2023/08/10 09:41:11;;;;;;;1.95;0.50;;;19.90;99.90;;;;;;5063981;28;20044;-34
2023/08/10 09:43:38;;;;;;;2.85;0.50;;;20.00;99.90;;;;;;5065387;28;20620;-34
2023/08/10 09:46:12;;;;;;;3.47;0.50;;;20.00;99.90;;;;;;5064219;28;20551;-34
2023/08/10 09:48:39;;;;;;;1.80;0.52;;;20.00;99.90;;;;;;5063054;28;20059;-33
2023/08/10 09:51:06;;;;;;;1.70;0.50;;;20.10;99.90;;;;;;5060340;28;20037;-33
2023/08/10 09:53:33;;;;;;;2.70;0.60;;;20.10;99.90;;;;;;5059640;28;20565;-34
2023/08/10 09:56:00;;;;;;;1.50;0.65;;;20.10;99.90;;;;;;5066160;28;20549;-34
2023/08/10 09:58:26;;;;;;;2.13;0.60;;;20.20;99.90;;;;;;5068484;28;20056;-34
2023/08/10 10:00:52;;;;;;;3.00;0.60;;;20.30;99.90;;;;;;5065884;28;20072;-33
2023/08/10 10:03:20;;;;;;;3.00;0.70;;;20.40;99.90;;;;;;5064326;28;20056;-34
2023/08/10 10:05:48;;;;;;;2.05;0.50;;;20.50;99.90;;;;;;5067243;28;20145;-33
2023/08/10 10:08:14;;;;;;;1.55;0.50;;;20.50;99.90;;;;;;5061758;28;20052;-33
2023/08/10 10:10:43;;;;;;;1.70;0.70;;;20.40;99.90;;;;;;5065626;28;20049;-33
2023/08/10 10:13:12;;;;;;;3.08;1.08;;;20.50;99.90;;;;;;5069310;28;20048;-33
2023/08/10 10:15:45;;;;;;;3.20;0.70;;;20.50;99.90;;;;;;5063593;28;20056;-33
2023/08/10 10:18:12;;;;;;;1.92;0.68;;;20.60;99.90;;;;;;5062617;28;20174;-34
2023/08/10 10:20:41;;;;;;;2.97;0.60;;;20.60;99.90;;;;;;5062046;28;20048;-33
2023/08/10 10:23:14;;;;;;;3.22;0.70;;;20.60;99.90;;;;;;5063847;28;20056;-33
2023/08/10 10:25:55;;;;;;;2.75;1.02;;;20.70;99.90;;;;;;5061155;28;20125;-33
2023/08/10 10:28:21;;;;;;;2.53;0.80;;;20.90;99.90;;;;;;5063372;28;20429;-34
2023/08/10 10:31:17;;;;;;;2.38;0.93;;;20.80;99.90;;;;;;5068511;28;20052;-33
2023/08/10 10:33:56;;;;;;;2.47;1.02;;;20.80;99.90;;;;;;5065907;28;20045;-33
2023/08/10 10:36:21;;;;;;;2.83;1.10;;;20.80;99.90;;;;;;5066816;28;20060;-33
2023/08/10 10:38:52;;;;;;;3.25;0.80;;;20.80;99.90;;;;;;5066646;28;20757;-34
2023/08/10 10:41:30;;;;;;;2.20;0.68;;;20.80;99.90;;;;;;5064494;28;20110;-34
2023/08/10 10:43:58;;;;;;;2.30;0.70;;;20.80;99.90;;;;;;5061280;28;20056;-33
2023/08/10 10:46:33;;;;;;;1.95;0.93;;;20.90;99.90;;;;;;5063419;28;20048;-33
2023/08/10 10:48:59;;;;;;;3.90;0.75;;;20.90;99.90;;;;;;5066761;28;20083;-34
2023/08/10 10:51:27;;;;;;;3.25;1.10;;;20.90;99.90;;;;;;5064817;28;20058;-33
2023/08/10 10:53:54;;;;;;;2.53;1.00;;;21.00;99.90;;;;;;5061988;28;20107;-33
2023/08/10 10:56:20;;;;;;;3.42;0.93;;;20.90;99.90;;;;;;5064457;28;20098;-34
2023/08/10 10:58:50;;;;;;;2.25;0.70;;;21.00;99.90;;;;;;5063936;28;20058;-33
2023/08/10 11:01:19;;;;;;;1.98;0.80;;;21.10;99.90;;;;;;5059399;28;20068;-34
2023/08/10 11:03:53;;;;;;;2.58;0.82;;;21.30;99.90;;;;;;5059602;28;20053;-33
2023/08/10 11:06:20;;;;;;;6.40;1.25;;;21.60;99.90;;;;;;5063279;28;20132;-33
2023/08/10 11:08:51;;;;;;;2.70;0.98;;;21.70;99.90;;;;;;5061915;28;20049;-34
2023/08/10 11:11:17;;;;;;;1.95;0.90;;;21.80;99.90;;;;;;5061237;28;20055;-34
2023/08/10 11:13:43;;;;;;;2.47;1.10;;;21.90;99.90;;;;;;5057740;28;20189;-33
2023/08/10 11:16:09;;;;;;;3.10;1.23;;;21.80;99.90;;;;;;5058334;28;20544;-34
2023/08/10 11:18:37;;;;;;;3.63;1.33;;;21.90;99.90;;;;;;5050397;28;20052;-34
2023/08/10 11:21:06;;;;;;;2.28;1.02;;;21.90;99.90;;;;;;5060682;28;20060;-34
2023/08/10 11:23:32;;;;;;;3.08;1.13;;;22.10;99.90;;;;;;5066730;28;20044;-34
2023/08/10 11:25:58;;;;;;;2.45;1.00;;;22.10;99.90;;;;;;5059327;28;20112;-34
2023/08/10 11:28:25;;;;;;;4.68;1.35;;;22.20;99.90;;;;;;5063641;28;20178;-34
2023/08/10 11:30:51;;;;;;;2.92;1.20;;;22.30;99.90;;;;;;5064564;28;20067;-34
2023/08/10 11:33:18;;;;;;;3.53;1.30;;;22.50;99.90;;;;;;5039760;28;20065;-34
2023/08/10 11:35:50;;;;;;;3.95;1.50;;;22.70;99.90;;;;;;5038465;28;20049;-34
2023/08/10 11:38:16;;;;;;;;;;;22.80;99.90;;;;;;5059627;28;20060;-33
2023/08/10 11:40:42;;;;;;;3.03;1.30;;;22.90;99.90;;;;;;5060365;28;20297;-34
2023/08/10 11:43:12;;;;;;;3.33;1.40;;;22.90;99.90;;;;;;5063896;28;20134;-34
2023/08/10 11:45:38;;;;;;;3.17;1.52;;;23.10;99.90;;;;;;5047134;28;20045;-34
2023/08/10 11:48:13;;;;;;;4.25;1.38;;;23.30;99.90;;;;;;5042392;28;20045;-34
2023/08/10 11:50:39;;;;;;;4.72;1.50;;;23.40;99.90;;;;;;5062693;28;20048;-34
2023/08/10 11:53:15;;;;;;;2.97;1.70;;;23.40;99.90;;;;;;5063594;28;20059;-34
2023/08/10 11:55:45;;;;;;;3.88;1.85;;;23.30;99.90;;;;;;5064445;28;20045;-33
2023/08/10 11:58:13;;;;;;;4.57;1.80;;;23.10;99.90;;;;;;5061192;28;20059;-34
2023/08/10 12:00:42;;;;;;;3.08;1.60;;;23.20;99.90;;;;;;5056168;28;20120;-34
2023/08/10 12:03:18;;;;;;;5.18;1.80;;;23.30;99.90;;;;;;5059307;28;20048;-34
2023/08/10 12:05:53;;;;;;;4.78;2.00;;;23.30;99.90;;;;;;5073802;28;20048;-34
2023/08/10 12:08:24;;;;;;;5.00;2.28;;;23.40;99.90;;;;;;5043575;28;20056;-34
2023/08/10 12:11:01;;;;;;;3.80;2.10;;;23.60;99.90;;;;;;5065722;28;20129;-34
2023/08/10 12:13:27;;;;;;;4.70;2.10;;;23.50;99.90;;;;;;5055177;28;20049;-34
2023/08/10 12:15:53;;;;;;;6.93;2.80;;;23.40;99.90;;;;;;5047033;28;20064;-34
2023/08/10 12:18:21;;;;;;;4.55;2.10;;;23.50;99.90;;;;;;5056307;28;20501;-34
2023/08/10 12:20:49;;;;;;;4.18;2.40;;;23.30;99.90;;;;;;5062529;28;20036;-34
2023/08/10 12:23:15;;;;;;;5.68;2.65;;;23.40;99.90;;;;;;5040854;28;20048;-34
2023/08/10 12:25:44;;;;;;;4.40;1.95;;;23.40;99.90;;;;;;5036316;28;20048;-34
2023/08/10 12:28:10;;;;;;;5.60;2.30;;;23.50;99.90;;;;;;5047618;28;20227;-34
2023/08/10 12:30:37;;;;;;;3.22;1.85;;;23.50;99.90;;;;;;5035842;28;20107;-34
2023/08/10 12:33:04;;;;;;;4.20;1.70;;;23.70;99.90;;;;;;5040326;28;20075;-34
2023/08/10 12:35:30;;;;;;;3.25;1.88;;;23.60;99.90;;;;;;5060001;28;20509;-34
2023/08/10 12:37:56;;;;;;;3.10;1.50;;;23.70;99.90;;;;;;5051764;28;20060;-34
2023/08/10 12:40:22;;;;;;;6.50;2.10;;;23.70;99.90;;;;;;5058861;28;20052;-34
2023/08/10 12:42:48;;;;;;;9.43;2.10;;;23.70;99.90;;;;;;5064874;28;20041;-34
2023/08/10 12:45:14;;;;;;;4.32;1.70;;;23.60;99.90;;;;;;5062964;28;20555;-34
2023/08/10 12:47:42;;;;;;;4.20;1.90;;;23.70;99.90;;;;;;5044688;28;20037;-34